Gothenburg, NE

12:33 PM CDT on July 10, 2014 (GMT -0500)
Cozad, Nebraska (KNECOZAD2) Elev 2487 ft | 40.86 °N, 99.92 °W | Change Station

Current weather conditions updated 35 seconds ago

Clear
Clear
81.0 °F
Feels Like 85 °F
N
6.0
Wind Variable Wind from SSW
Gusts 9.0 mph

Today is forecast to be nearly the same temperature as yesterday.

Today
High -- | Low -- °F
--% Chance of Precip.
Yesterday
High -- | Low -- °F
Precip. -- in
6:17 AM 9:13 PM
Waxing Gibbous, 96% visible
Pressure 29.98 in
Visibility 10.0 miles
Clouds Clear
Heat Index 85 °F
Dew Point 71 °F
Humidity 72%
Rainfall 0.43 in
Snow Depth Not available.
UV 11 out of 12
Pollen 4.80 out of 12
Air Quality Not available.
Flu Activity Sporadic
METAR KLXN 101715Z AUTO 17015KT 10SM CLR 28/19 A2998 RMK AO2 T02750190

More Conditions Fewer Conditions

Pressure 29.98 in
Visibility 10.0 miles
Clouds Clear
Heat Index 85 °F
Dew Point 71 °F
Humidity 72%
Rainfall 0.43 in
Snow Depth Not available.
UV 11 out of 12
Pollen 4.80 out of 12
Air Quality Not available.
Flu Activity Sporadic
METAR KLXN 101715Z AUTO 17015KT 10SM CLR 28/19 A2998 RMK AO2 T02750190

More Conditions Fewer Conditions

10-Day Weather Forecast

Almanac

Astronomy

Jul. 10, 2014 Rise Set
Actual Time 6:17 AM CDT 9:13 PM CDT
Civil Twilight 5:45 AM CDT 9:46 PM CDT
Nautical Twilight 5:03 AM CDT 10:28 PM CDT
Astronomical Twilight 4:14 AM CDT 11:16 PM CDT
Moon 7:27 PM CDT 4:31 AM CDT
Length of Visible Light 16h 01m
Length of Day
14h 55m
Tomorrow will be 1m 10s shorter.
Waxing Gibbous, 96% of the Moon is Illuminated
Today
Waxing Gibbous
Jul 12
Full
Jul 18
Last Quarter
Jul 26
New
Aug 3
First Quarter

Today's Extremes

State Highs State Lows

Community

WunderPhotos

Upload Photos

1,732,202 photos uploaded!

WunderBlogs® & News

Nearby

Snow Depth

Station Depth Elevation
No new snow has been reported.

Earthquake Activity

City Distance Mag. Time & Date
No recent earthquake activity has been reported nearby.
Minimum magnitude displayed is 2.5.

Coastal Water Temperatures

Place Temperature
No Stations Reporting

Nearby Weather Stations

Station Location Temp. Heat Index Dew Point Humidity Wind Precip. Elev Updated Type
MesoWest WILLO2 , Willow Island, NE 76 °F 74 °F - - North  at  - 0.00 in / hr 2523 ft 11:00 AM CDT MADIS
MesoWest BRADY1 , Brady, NE 74 °F 72 °F - - North  at  - 0.00 in / hr 2649 ft 10:00 AM CDT MADIS
Cozad, Nebraska, Cozad, NE 81.0 °F 85 °F 71 °F 72% SSW  at  6.0 mph 0.00 in / hr 2487 ft 12:32 PM CDT Rapid Fire
MesoWest LEXNG1 , Lexington, NE 76 °F 74 °F - - North  at  - 0.00 in / hr 2411 ft 10:00 AM CDT MADIS
Mallard Bay, Johnson Lake, NE 80.1 °F 81 °F 62 °F 55% South  at  11.1 mph 0.00 in / hr 2623 ft 12:33 PM CDT Rapid Fire

Show More Stations Show Fewer Stations